Latest Weather Observations for Cape Jaffa

IDS60801

Issued at 7:34 pm CDT Sunday 29 March 2015 (issued every 30 minutes, with the page automatically refreshed every 10 minutes)

About weather observations | Map of weather stations | Latest weather observations for SA | Other Formats
Station Details ID: 026095 Name: THE LIMESTONE Lat: -36.97 Lon: 139.72 Height: 17.0 m
Data from the previous 72 hours. | See also: Recent months at Cape Jaffa
Date/Time
CDT
Temp
°C
App
Temp
°C
Dew
Point
Rel
Hum
%
Delta-T
°C
Wind Press
QNH
hPa
Press
MSL
hPa
Rain
since 9 am
mm
Dir
 
Spd
km/h
Gust
km/h
Spd
kts
Gust
kts
29/07:30pm 17.1 16.9 13.6 80 2.0 WSW 7 9 4 5 1022.6 1022.5 0.0
29/07:00pm 18.0 17.3 13.3 74 2.6 W 9 11 5 6 1022.6 1022.5 0.0
29/06:30pm 18.0 17.0 13.5 75 2.5 W 11 13 6 7 1022.4 1022.3 0.0
29/06:00pm 18.4 17.0 13.3 72 2.9 W 13 15 7 8 1022.3 1022.2 0.0
29/05:30pm 19.5 17.4 11.3 59 4.5 W 13 17 7 9 1022.1 1022.0 0.0
29/05:00pm 19.9 17.6 11.9 60 4.4 W 15 20 8 11 1022.0 1021.9 0.0
29/04:30pm 19.6 17.1 10.9 57 4.7 WNW 15 20 8 11 1021.8 1021.7 0.0
29/04:00pm 19.6 17.0 11.9 61 4.3 NW 17 20 9 11 1021.9 1021.8 0.0
29/03:30pm 20.2 18.0 12.2 60 4.5 NW 15 20 8 11 1021.9 1021.8 0.0
29/03:00pm 19.8 16.9 12.3 62 4.2 NW 19 24 10 13 1021.9 1021.8 0.0
29/02:30pm 19.4 16.3 11.7 61 4.2 NNW 19 22 10 12 1022.1 1022.0 0.0
29/02:00pm 19.8 16.3 11.0 57 4.8 NNW 20 24 11 13 1022.3 1022.2 0.0
29/01:30pm 19.3 15.9 10.6 57 4.7 NNW 19 22 10 12 1022.5 1022.4 0.0
29/01:00pm 19.0 15.3 10.3 57 4.7 NNW 20 26 11 14 1022.6 1022.5 0.0
29/12:30pm 19.0 15.7 10.8 59 4.4 N 19 22 10 12 1022.7 1022.6 0.0
29/12:00pm 19.0 15.2 9.2 53 5.1 N 19 22 10 12 1022.9 1022.8 0.0
29/11:30am 18.8 15.3 10.1 57 4.6 N 19 22 10 12 1023.1 1023.0 0.0
29/11:00am 18.3 15.5 9.9 58 4.4 N 15 20 8 11 1023.1 1023.0 0.0
29/10:30am 17.7 15.6 11.3 66 3.5 N 13 17 7 9 1023.1 1023.0 0.0
29/10:00am 15.8 15.3 12.7 82 1.7 NNE 7 11 4 6 1023.1 1023.0 0.0
29/09:30am 13.4 12.6 10.9 85 1.3 ENE 6 7 3 4 1023.1 1023.0 0.0
29/09:00am 11.9 10.5 9.6 86 1.2 ENE 7 9 4 5 1022.9 1022.8 0.0
29/08:30am 10.4 8.3 8.2 86 1.1 ENE 9 11 5 6 1022.7 1022.6 0.0
29/08:00am 9.6 7.3 7.5 87 1.0 ENE 9 9 5 5 1022.4 1022.3 0.0
29/07:30am 9.1 6.3 6.9 86 1.0 E 11 11 6 6 1022.3 1022.2 0.0
29/07:00am 9.3 6.6 7.3 87 0.9 E 11 11 6 6 1021.9 1021.8 0.0
29/06:30am 9.5 7.2 7.3 86 1.0 E 9 11 5 6 1021.8 1021.7 0.0
29/06:00am 9.8 7.6 7.7 87 1.0 E 9 9 5 5 1021.4 1021.3 0.0
29/05:30am 9.1 6.7 6.9 86 1.0 E 9 11 5 6 1021.2 1021.1 0.0
29/05:00am 9.6 7.3 7.4 86 1.0 ENE 9 11 5 6 1020.9 1020.8 0.0
29/04:30am 10.1 8.2 7.7 85 1.1 ENE 7 9 4 5 1020.7 1020.6 0.0
29/04:00am 10.3 8.5 7.9 85 1.2 E 7 9 4 5 1020.7 1020.6 0.0
29/03:30am 10.1 8.2 7.7 85 1.1 ENE 7 7 4 4 1021.0 1020.9 0.0
29/03:00am 10.1 8.2 7.7 85 1.1 ENE 7 9 4 5 1021.0 1020.9 0.0
29/02:30am 10.0 7.7 7.6 85 1.1 ENE 9 9 5 5 1021.1 1021.0 0.0
29/02:00am 10.1 7.9 7.9 86 1.1 E 9 11 5 6 1021.3 1021.2 0.0
29/01:30am 9.7 7.0 7.5 86 1.0 E 11 13 6 7 1021.2 1021.1 0.0
29/01:00am 9.8 7.5 7.6 86 1.1 E 9 11 5 6 1021.4 1021.3 0.0
29/12:30am 9.9 7.2 7.3 84 1.2 E 11 11 6 6 1021.5 1021.4 0.0
29/12:00am 10.5 8.3 7.7 83 1.3 E 9 9 5 5 1021.6 1021.5 0.0
 
Date/Time
CDT
Temp
°C
App
Temp
°C
Dew
Point
Rel
Hum
%
Delta-T
°C
Wind Press
QNH
hPa
Press
MSL
hPa
Rain
since 9 am
mm
Dir
 
Spd
km/h
Gust
km/h
Spd
kts
Gust
kts
28/11:30pm 11.8 10.7 8.5 80 1.6 ENE 4 6 2 3 1021.9 1021.8 0.0
28/11:00pm 11.5 11.0 7.8 78 1.8 CALM 0 0 0 0 1022.0 1021.9 0.0
28/10:30pm 12.2 11.9 8.7 79 1.7 CALM 0 2 0 1 1022.1 1022.0 0.0
28/10:00pm 13.1 12.9 9.0 76 2.1 CALM 0 0 0 0 1022.2 1022.1 0.0
28/09:30pm 13.4 12.4 8.9 74 2.3 W 4 6 2 3 1022.3 1022.2 0.0
28/09:00pm 13.7 12.7 9.0 73 2.4 W 4 4 2 2 1022.3 1022.2 0.0
28/08:30pm 13.6 12.2 8.7 72 2.5 W 6 6 3 3 1022.1 1022.0 0.0
28/08:00pm 14.1 13.4 8.7 70 2.7 SSW 2 2 1 1 1021.9 1021.8 0.0
28/07:30pm 14.9 14.3 9.1 68 3.0 SSW 2 2 1 1 1021.6 1021.5 0.0
28/07:00pm 15.3 13.9 8.8 65 3.3 SSW 6 6 3 3 1021.6 1021.5 0.0
28/06:30pm 16.6 15.0 8.8 60 4.0 SW 7 9 4 5 1021.6 1021.5 0.0
28/06:00pm 17.4 15.4 8.5 56 4.6 W 9 13 5 7 1021.5 1021.4 0.0
28/05:30pm 17.9 16.2 8.5 54 4.8 W 7 19 4 10 1021.7 1021.6 0.0
28/05:00pm 17.7 14.8 8.0 53 4.9 W 13 19 7 10 1021.9 1021.8 0.0
28/04:30pm 18.6 15.7 8.3 51 5.3 WNW 13 19 7 10 1022.2 1022.1 0.0
28/04:00pm 18.8 15.4 7.6 48 5.7 NW 15 20 8 11 1022.4 1022.3 0.0
28/03:30pm 18.1 15.6 8.1 52 5.1 NW 11 17 6 9 1022.7 1022.6 0.0
28/03:00pm 17.9 14.3 8.5 54 4.8 NW 17 20 9 11 1023.4 1023.3 0.0
28/02:30pm 18.3 14.9 7.7 50 5.4 NNW 15 24 8 13 1023.5 1023.5 0.0
28/02:00pm 18.6 16.1 8.0 50 5.4 NW 11 19 6 10 1024.0 1024.0 0.0
28/01:30pm 16.3 12.9 7.5 56 4.4 NNW 15 20 8 11 1024.5 1024.5 0.0
28/01:00pm 16.6 12.8 7.5 55 4.6 NNW 17 24 9 13 1024.9 1024.9 0.0
28/12:30pm 15.9 12.1 7.7 58 4.1 N 17 24 9 13 1025.0 1025.0 0.0
28/12:00pm 16.7 13.0 8.1 57 4.3 N 17 22 9 12 1025.2 1025.2 0.0
28/11:30am 16.3 12.4 8.5 60 4.0 N 19 28 10 15 1025.5 1025.5 0.0
28/11:00am 16.1 11.7 8.8 62 3.7 NNE 22 28 12 15 1025.7 1025.7 0.0
28/10:30am 15.8 11.8 9.2 65 3.4 N 20 24 11 13 1025.8 1025.8 0.0
28/10:00am 15.3 11.3 9.2 67 3.1 NNE 20 24 11 13 1025.9 1025.9 0.0
28/09:30am 15.3 12.1 9.9 70 2.8 NNE 17 22 9 12 1026.0 1026.0 0.0
28/09:00am 14.7 12.1 9.5 71 2.7 NNE 13 19 7 10 1026.3 1026.3 0.0
28/08:30am 14.0 11.7 10.4 79 1.9 NNE 13 17 7 9 1026.1 1026.1 0.0
28/08:00am 12.8 11.3 10.5 86 1.2 NNE 9 11 5 6 1026.0 1026.0 0.0
28/07:30am 12.2 10.1 9.9 86 1.2 NE 11 13 6 7 1025.4 1025.4 0.0
28/07:00am 12.2 10.9 9.8 85 1.2 NE 7 9 4 5 1025.6 1025.6 0.0
28/06:30am 12.3 11.0 9.9 85 1.2 ENE 7 9 4 5 1025.6 1025.6 0.0
28/06:00am 12.3 11.0 9.9 85 1.2 E 7 9 4 5 1025.6 1025.6 0.0
28/05:30am 12.4 11.3 10.1 86 1.2 ENE 6 7 3 4 1025.4 1025.4 0.0
28/05:00am 12.4 11.3 10.0 85 1.2 NE 6 6 3 3 1025.3 1025.3 0.0
28/04:30am 12.5 11.4 10.0 85 1.3 ENE 6 6 3 3 1025.2 1025.2 0.0
28/04:00am 12.7 11.4 10.1 84 1.3 ENE 7 9 4 5 1025.2 1025.2 0.0
28/03:30am 12.8 10.8 10.0 83 1.4 NE 11 17 6 9 1025.6 1025.6 0.0
28/03:00am 12.6 11.9 10.1 85 1.3 NE 4 6 2 3 1026.0 1026.0 0.0
28/02:30am 12.9 13.0 10.3 84 1.3 CALM 0 0 0 0 1026.1 1026.1 0.0
28/02:00am 13.1 12.2 10.5 84 1.4 ENE 6 6 3 3 1026.4 1026.4 0.0
28/01:30am 13.1 13.2 10.3 83 1.4 CALM 0 0 0 0 1026.4 1026.4 0.0
28/01:00am 13.2 13.4 10.4 83 1.5 CALM 0 0 0 0 1026.5 1026.5 0.0
28/12:30am 13.1 13.2 10.3 83 1.4 CALM 0 2 0 1 1026.5 1026.5 0.0
28/12:00am 13.1 12.9 10.5 84 1.3 ENE 2 2 1 1 1026.8 1026.8 0.0
 
Date/Time
CDT
Temp
°C
App
Temp
°C
Dew
Point
Rel
Hum
%
Delta-T
°C
Wind Press
QNH
hPa
Press
MSL
hPa
Rain
since 9 am
mm
Dir
 
Spd
km/h
Gust
km/h
Spd
kts
Gust
kts
27/11:30pm 13.3 12.4 10.5 83 1.4 E 6 6 3 3 1026.9 1026.9 0.0
27/11:00pm 13.7 13.4 10.1 79 1.9 E 2 2 1 1 1027.0 1027.0 0.0
27/10:30pm 14.1 12.4 9.9 76 2.2 SSW 9 13 5 7 1027.0 1027.0 0.0
27/10:00pm 14.0 10.9 10.2 78 2.0 SSW 17 22 9 12 1027.0 1027.0 0.0
27/09:30pm 13.9 10.2 10.3 79 1.9 SSW 20 24 11 13 1027.2 1027.2 0.0
27/09:00pm 13.9 12.9 10.3 79 1.9 SSE 6 9 3 5 1027.2 1027.2 0.0
27/08:30pm 13.7 10.3 10.5 81 1.7 SSW 19 22 10 12 1027.1 1027.1 0.0
27/08:00pm 13.8 10.3 10.2 79 1.9 SSW 19 22 10 12 1026.8 1026.8 0.0
27/07:30pm 14.5 11.5 10.7 78 2.0 SSW 17 20 9 11 1026.8 1026.8 0.0
27/07:00pm 14.7 11.5 9.9 73 2.5 SSW 17 20 9 11 1026.7 1026.7 0.0
27/06:30pm 14.3 10.8 10.1 76 2.2 SW 19 24 10 13 1026.5 1026.5 0.0
27/06:00pm 14.3 9.2 10.7 79 1.9 SW 28 35 15 19 1026.4 1026.4 0.0
27/05:30pm 16.3 13.0 11.0 71 2.8 SSW 19 24 10 13 1026.4 1026.4 0.0
27/05:00pm 15.6 11.4 9.9 69 3.0 SSW 22 30 12 16 1026.3 1026.3 0.0
27/04:30pm 16.2 12.2 10.5 69 3.0 SSW 22 26 12 14 1026.4 1026.4 0.0
27/04:00pm 15.9 12.2 10.2 69 3.0 SSW 20 24 11 13 1026.4 1026.4 0.0
27/03:30pm 15.0 9.8 10.4 74 2.4 SW 28 33 15 18 1026.5 1026.5 0.0
27/03:00pm 16.5 14.2 10.4 67 3.2 SSW 13 20 7 11 1026.7 1026.7 0.0
27/02:30pm 16.5 12.9 10.6 68 3.1 SW 20 28 11 15 1026.8 1026.8 0.0
27/02:00pm 16.4 12.4 10.3 67 3.2 SW 22 32 12 17 1027.1 1027.1 0.0
27/01:30pm 16.6 12.5 10.0 65 3.5 SSW 22 30 12 16 1027.4 1027.4 0.0
27/01:00pm 16.2 12.6 10.5 69 3.0 S 20 28 11 15 1027.7 1027.7 0.0
27/12:30pm 16.3 11.7 12.3 77 2.2 SSW 28 35 15 19 1027.9 1027.9 0.0
27/12:00pm 15.9 12.2 10.2 69 3.0 SW 20 28 11 15 1028.1 1028.1 0.0
27/11:30am 16.0 12.7 11.0 72 2.7 SW 19 24 10 13 1028.3 1028.3 0.0
27/11:00am 15.7 11.1 11.1 74 2.5 SSW 26 35 14 19 1028.3 1028.3 0.0
27/10:30am 15.3 12.3 10.7 74 2.4 SSW 17 20 9 11 1028.3 1028.3 0.0
27/10:00am 13.9 10.1 9.9 77 2.1 SSW 20 28 11 15 1028.2 1028.2 0.0
27/09:30am 14.3 9.7 9.5 73 2.4 SSW 24 32 13 17 1027.9 1027.9 0.0
27/09:00am 14.5 10.2 9.3 71 2.6 SW 22 30 12 16 1027.5 1027.5 2.8
27/08:30am 13.7 9.1 8.3 70 2.7 SSW 22 28 12 15 1027.4 1027.4 2.8
27/08:00am 13.9 9.1 7.4 65 3.2 SW 22 28 12 15 1027.1 1027.1 2.8
27/07:30am 13.4 8.0 6.5 63 3.3 SSW 24 35 13 19 1026.8 1026.8 2.8
27/07:00am 13.6 8.3 6.9 64 3.2 SW 24 30 13 16 1026.6 1026.6 2.8
27/06:30am 13.5 8.2 6.8 64 3.2 SW 24 33 13 18 1026.6 1026.6 2.8
27/06:00am 13.4 7.6 7.8 69 2.7 SW 28 35 15 19 1026.2 1026.2 2.8
27/05:30am 12.6 10.1 9.8 83 1.4 SW 13 20 7 11 1026.1 1026.1 2.8
27/05:00am 12.2 6.3 9.2 82 1.5 WSW 30 39 16 21 1026.0 1026.0 2.6
27/04:30am 12.3 8.0 9.3 82 1.5 SSW 22 30 12 16 1025.7 1025.7 2.6
27/04:00am 12.4 7.5 10.1 86 1.2 SSW 26 33 14 18 1025.6 1025.6 2.6
27/03:30am 12.5 7.3 9.0 79 1.7 SSW 26 32 14 17 1025.7 1025.7 2.0
27/03:00am 12.9 7.6 8.6 75 2.1 SW 26 32 14 17 1025.9 1025.9 2.0
27/02:30am 12.4 7.1 8.5 77 1.9 SW 26 32 14 17 1026.0 1026.0 2.0
27/02:00am 12.7 8.4 9.3 80 1.7 SW 22 32 12 17 1026.0 1026.0 2.0
27/01:30am 12.5 7.0 10.4 87 1.1 SW 30 37 16 20 1026.1 1026.1 1.8
27/01:00am 12.8 6.8 10.0 83 1.4 WSW 32 41 17 22 1025.8 1025.8 1.8
27/12:30am 12.7 8.9 9.9 83 1.4 SW 20 28 11 15 1026.0 1026.0 1.8
27/12:00am 13.4 8.3 9.3 76 2.1 SW 26 35 14 19 1025.8 1025.8 1.4
 
Date/Time
CDT
Temp
°C
App
Temp
°C
Dew
Point
Rel
Hum
%
Delta-T
°C
Wind Press
QNH
hPa
Press
MSL
hPa
Rain
since 9 am
mm
Dir
 
Spd
km/h
Gust
km/h
Spd
kts
Gust
kts
26/11:30pm 13.4 8.5 8.3 71 2.5 SW 24 32 13 17 1026.0 1026.0 1.4
26/11:00pm 13.0 6.9 8.1 72 2.4 SW 30 37 16 20 1026.1 1026.1 1.4
26/10:30pm 13.3 8.0 8.6 73 2.3 SW 26 35 14 19 1026.1 1026.1 1.4
26/10:00pm 12.9 7.5 9.4 79 1.8 WSW 28 35 15 19 1026.1 1026.1 1.4
26/09:30pm 12.6 7.3 9.8 83 1.4 SW 28 43 15 23 1026.1 1026.1 1.2
26/09:00pm 12.9 6.9 8.8 76 2.0 SW 30 43 16 23 1025.7 1025.7 1.0
26/08:30pm 12.7 6.5 9.9 83 1.4 SSW 33 43 18 23 1025.5 1025.5 1.0
26/08:00pm 13.1 6.6 9.0 76 2.1 WSW 33 43 18 23 1025.2 1025.2 1.0

Other Formats:

Comma delimited format used in spreadsheet applications
http://www.bom.gov.au/fwo/IDS60801/IDS60801.94813.axf

JavaScript Object Notation format (JSON) in row-major order
http://www.bom.gov.au/fwo/IDS60801/IDS60801.94813.json